createdAt,value
2019-04-11T00:01:14.215Z,30.75
2019-04-11T00:03:46.093Z,29.25
2019-04-11T00:06:19.347Z,27.67
2019-04-11T00:08:52.323Z,35.52
2019-04-11T00:11:24.321Z,29.00
2019-04-11T00:13:56.093Z,30.72
2019-04-11T00:16:28.956Z,27.15
2019-04-11T00:19:00.621Z,26.73
2019-04-11T00:21:32.994Z,28.55
2019-04-11T00:24:05.008Z,25.40
2019-04-11T00:26:38.194Z,26.95
2019-04-11T00:29:10.337Z,26.00
2019-04-11T00:31:43.086Z,27.07
2019-04-11T00:34:15.119Z,22.62
2019-04-11T00:36:46.832Z,32.25
2019-04-11T00:39:19.493Z,35.75
2019-04-11T00:41:52.296Z,42.90
2019-04-11T00:44:25.093Z,53.30
2019-04-11T00:46:56.959Z,60.25
2019-04-11T00:49:28.810Z,68.83
2019-04-11T00:52:00.882Z,65.52
2019-04-11T00:54:33.218Z,71.92
2019-04-11T00:57:06.473Z,66.92
2019-04-11T00:59:38.529Z,81.80
2019-04-11T01:02:11.409Z,75.12
2019-04-11T01:04:43.573Z,80.57
2019-04-11T01:07:16.474Z,77.37
2019-04-11T01:09:48.625Z,73.62
2019-04-11T01:12:21.006Z,79.90
2019-04-11T01:14:53.174Z,74.47
2019-04-11T01:17:25.396Z,78.90
2019-04-11T01:19:57.423Z,75.25
2019-04-11T01:22:29.872Z,78.65
2019-04-11T01:25:01.772Z,75.40
2019-04-11T01:27:34.180Z,76.02
2019-04-11T01:30:10.072Z,77.58
2019-04-11T01:32:42.373Z,81.32
2019-04-11T01:35:15.157Z,71.25
2019-04-11T01:37:48.094Z,72.32
2019-04-11T01:40:19.891Z,75.87
2019-04-11T01:42:52.055Z,71.17
2019-04-11T01:45:25.374Z,81.15
2019-04-11T01:47:59.459Z,73.50
2019-04-11T01:50:32.911Z,80.60
2019-04-11T01:53:05.043Z,74.85
2019-04-11T01:55:37.102Z,71.55
2019-04-11T01:58:09.168Z,76.77
2019-04-11T02:00:49.041Z,72.10
2019-04-11T02:03:25.586Z,73.55
2019-04-11T02:05:57.560Z,84.32
2019-04-11T02:08:29.518Z,81.28
2019-04-11T02:11:01.449Z,74.37
2019-04-11T02:13:34.246Z,78.65
2019-04-11T02:16:06.937Z,71.87
2019-04-11T02:18:39.390Z,73.30
2019-04-11T02:21:11.544Z,67.70
2019-04-11T02:23:57.501Z,67.90
2019-04-11T02:26:31.471Z,71.02
2019-04-11T02:29:03.523Z,68.55
2019-04-11T02:31:36.789Z,57.95
2019-04-11T02:34:11.219Z,61.00
2019-04-11T02:36:42.997Z,56.60
2019-04-11T02:39:19.266Z,61.40
2019-04-11T02:41:50.620Z,52.83
2019-04-11T02:44:46.043Z,47.25
2019-04-11T02:47:01.757Z,51.70
2019-04-11T02:49:30.977Z,56.40
2019-04-11T02:52:02.929Z,45.15
2019-04-11T02:54:36.666Z,43.50
2019-04-11T02:57:09.964Z,40.10
2019-04-11T02:59:44.439Z,43.60
2019-04-11T03:02:19.022Z,41.88
2019-04-11T03:04:50.926Z,39.65
2019-04-11T03:07:22.789Z,40.90
2019-04-11T03:09:56.750Z,37.78
2019-04-11T03:12:29.717Z,38.30
2019-04-11T03:15:14.388Z,36.88
2019-04-11T03:17:42.205Z,36.15
2019-04-11T03:22:44.763Z,38.95
2019-04-11T03:25:17.755Z,41.40
2019-04-11T03:27:51.808Z,39.63
2019-04-11T03:30:40.653Z,37.00
2019-04-11T03:38:40.085Z,39.30
2019-04-11T03:41:08.774Z,36.90
2019-04-11T03:43:34.515Z,34.73
2019-04-11T03:46:18.009Z,34.30
2019-04-11T03:48:43.748Z,36.68
2019-04-11T03:51:04.798Z,40.60
2019-04-11T03:53:37.359Z,38.35
2019-04-11T03:56:09.758Z,37.23
2019-04-11T03:58:43.595Z,40.25
2019-04-11T04:01:18.183Z,36.45
2019-04-11T04:03:53.943Z,36.23
2019-04-11T04:06:28.575Z,36.03
2019-04-11T04:09:02.744Z,37.73
2019-04-11T04:11:36.274Z,43.30
2019-04-11T04:14:10.452Z,39.67
2019-04-11T04:16:48.266Z,36.80
2019-04-11T04:19:20.557Z,39.63
2019-04-11T04:22:00.824Z,38.10
2019-04-11T04:24:39.072Z,36.17
2019-04-11T04:27:10.102Z,35.40
2019-04-11T04:29:46.772Z,39.03
2019-04-11T04:32:18.527Z,37.75
2019-04-11T04:34:50.814Z,37.55
2019-04-11T04:41:30.193Z,42.83
2019-04-11T04:43:54.819Z,38.00
2019-04-11T04:46:45.330Z,39.00
2019-04-11T04:49:02.324Z,40.43
2019-04-11T04:51:35.163Z,38.83
2019-04-11T04:54:08.122Z,36.85
2019-04-11T04:56:41.953Z,38.28
2019-04-11T04:59:14.653Z,40.17
2019-04-11T05:01:48.320Z,38.38
2019-04-11T05:04:21.040Z,39.18
2019-04-11T05:06:54.959Z,44.45
2019-04-11T05:09:26.874Z,40.05
2019-04-11T05:11:58.957Z,40.60
2019-04-11T05:14:31.673Z,39.42
2019-04-11T05:17:03.498Z,40.83
2019-04-11T05:19:35.364Z,34.20
2019-04-11T05:22:08.491Z,31.42
2019-04-11T05:24:41.049Z,30.12
2019-04-11T05:27:12.920Z,30.02
2019-04-11T05:29:45.936Z,30.88
2019-04-11T05:32:17.833Z,32.65
2019-04-11T05:34:49.704Z,29.00
2019-04-11T05:37:22.735Z,31.48
2019-04-11T05:39:54.576Z,29.80
2019-04-11T05:42:27.400Z,30.70
2019-04-11T05:44:59.310Z,34.58
2019-04-11T05:47:31.709Z,30.50
2019-04-11T05:50:12.912Z,32.90
2019-04-11T05:52:42.172Z,32.80
2019-04-11T05:55:15.515Z,34.27
2019-04-11T05:57:48.222Z,31.50
2019-04-11T06:00:21.739Z,31.42
2019-04-11T06:02:55.280Z,25.77
2019-04-11T06:05:47.400Z,30.70
2019-04-11T06:08:25.056Z,28.25
2019-04-11T06:13:30.542Z,34.13
2019-04-11T06:16:04.626Z,34.18
2019-04-11T06:18:41.884Z,30.82
2019-04-11T06:21:13.197Z,29.27
2019-04-11T06:23:47.704Z,34.78
2019-04-11T06:26:38.676Z,38.33
2019-04-11T06:29:21.293Z,38.70
2019-04-11T06:31:49.720Z,45.20
2019-04-11T06:34:24.060Z,44.38
2019-04-11T06:36:59.343Z,43.95
2019-04-11T06:39:35.962Z,43.98
2019-04-11T06:42:27.578Z,45.45
2019-04-11T06:45:02.132Z,41.45
2019-04-11T06:47:37.320Z,37.10
2019-04-11T06:50:20.476Z,42.13
2019-04-11T06:52:53.054Z,38.50
2019-04-11T06:55:42.660Z,35.68
2019-04-11T06:58:16.054Z,39.10
2019-04-11T07:00:50.088Z,32.13
2019-04-11T07:05:57.282Z,31.93
2019-04-11T07:08:30.645Z,34.47
2019-04-11T07:11:20.529Z,31.05
2019-04-11T07:14:01.904Z,31.50
2019-04-11T07:16:36.171Z,31.75
2019-04-11T07:19:09.646Z,31.15
2019-04-11T07:21:42.025Z,34.90
2019-04-11T07:24:30.970Z,28.77
2019-04-11T07:27:04.651Z,27.05
2019-04-11T07:29:46.974Z,25.02
2019-04-11T07:32:20.193Z,22.75
2019-04-11T07:35:00.011Z,17.03
2019-04-11T07:37:36.748Z,22.77
2019-04-11T07:40:15.306Z,19.82
2019-04-11T07:42:59.433Z,18.80
2019-04-11T07:45:49.134Z,18.27
2019-04-11T07:48:22.726Z,17.87
2019-04-11T07:50:55.406Z,21.95
2019-04-11T07:53:28.542Z,18.67
2019-04-11T07:56:02.051Z,16.67
2019-04-11T10:19:38.450Z,17.90
2019-04-11T10:22:13.011Z,17.73
2019-04-11T10:24:46.474Z,15.70
2019-04-11T10:27:36.364Z,17.85
2019-04-11T10:30:27.479Z,16.35
2019-04-11T10:33:07.223Z,16.57
2019-04-11T10:35:40.819Z,17.00
2019-04-11T10:38:16.224Z,15.50
2019-04-11T10:40:52.462Z,13.45
2019-04-11T10:43:24.646Z,12.58
2019-04-11T10:45:58.807Z,12.60
2019-04-11T10:48:37.769Z,10.88
2019-04-11T10:51:07.037Z,18.05
2019-04-11T10:53:39.645Z,15.63
2019-04-11T10:56:16.018Z,12.30
2019-04-11T10:58:49.708Z,18.00
2019-04-11T11:01:40.186Z,10.95
2019-04-11T11:04:13.803Z,16.62
2019-04-11T11:06:48.383Z,16.57
2019-04-11T11:09:39.940Z,15.13
2019-04-11T11:12:31.085Z,14.28
2019-04-11T11:15:04.661Z,12.75
2019-04-11T11:18:05.569Z,11.33
2019-04-11T11:20:38.591Z,10.18
2019-04-11T11:23:24.766Z,15.40
2019-04-11T11:26:07.400Z,14.60
2019-04-11T11:28:46.695Z,14.63
2019-04-11T11:31:24.345Z,13.72
2019-04-11T11:33:58.850Z,15.30
2019-04-11T11:36:48.475Z,15.50
2019-04-11T11:39:22.700Z,10.55
2019-04-11T11:42:12.564Z,7.67
2019-04-11T11:44:53.141Z,12.43
2019-04-11T11:47:43.201Z,9.08
2019-04-11T11:50:26.773Z,10.58
2019-04-11T11:53:12.687Z,9.43
2019-04-11T11:55:45.305Z,10.00
2019-04-11T11:58:37.862Z,10.10
2019-04-11T12:01:09.946Z,10.03
2019-04-11T12:03:49.186Z,8.55
2019-04-11T12:06:23.858Z,10.93
2019-04-11T12:09:00.488Z,13.15
2019-04-11T12:11:35.727Z,10.03
2019-04-11T12:14:09.708Z,10.32
2019-04-11T12:19:22.303Z,8.73
2019-04-11T12:21:56.000Z,13.20
2019-04-11T12:24:29.247Z,9.93
2019-04-11T12:27:04.404Z,7.75
2019-04-11T12:29:51.643Z,10.82
2019-04-11T12:32:28.439Z,10.18
2019-04-11T12:35:06.096Z,10.32
2019-04-11T12:37:39.487Z,10.03
2019-04-11T12:40:20.685Z,9.43
2019-04-11T12:42:52.856Z,9.10
2019-04-11T12:45:35.358Z,9.73
2019-04-11T12:48:07.417Z,9.50
2019-04-11T12:50:59.368Z,8.20
2019-04-11T12:53:31.421Z,9.03
2019-04-11T12:56:05.034Z,10.23
2019-04-11T12:59:24.307Z,7.00
2019-04-11T13:02:00.476Z,10.68
2019-04-11T13:04:32.438Z,8.50
2019-04-11T13:07:09.110Z,10.30
2019-04-11T13:09:43.854Z,9.75
2019-04-11T13:12:39.149Z,9.15
2019-04-11T13:15:24.121Z,10.15
2019-04-11T13:18:09.836Z,7.30
2019-04-11T13:20:49.549Z,11.95
2019-04-11T13:23:40.670Z,12.20
2019-04-11T13:26:30.529Z,7.12
2019-04-11T13:29:04.265Z,12.23
2019-04-11T13:31:55.975Z,9.68
2019-04-11T13:34:29.564Z,10.58
2019-04-11T13:37:19.467Z,8.13
2019-04-11T13:40:09.555Z,8.50
2019-04-11T13:43:02.520Z,9.88
2019-04-11T13:45:45.945Z,12.40
2019-04-11T13:48:35.710Z,11.78
2019-04-11T13:51:21.107Z,13.80
2019-04-11T13:54:11.093Z,11.30
2019-04-11T13:57:02.188Z,12.65
2019-04-11T13:59:35.790Z,12.15
2019-04-11T14:02:11.970Z,10.55
2019-04-11T14:04:57.864Z,9.23
2019-04-11T14:07:34.219Z,11.53
2019-04-11T14:10:08.445Z,13.78
2019-04-11T14:12:40.825Z,11.28
2019-04-11T14:15:17.388Z,12.98
2019-04-11T14:18:07.057Z,8.28
2019-04-11T14:20:59.104Z,12.82
2019-04-11T14:23:50.612Z,11.70
2019-04-11T14:26:24.316Z,10.50
2019-04-11T14:28:56.810Z,13.62
2019-04-11T14:31:39.124Z,14.38
2019-04-11T14:34:29.356Z,16.73
2019-04-11T14:37:21.144Z,11.68
2019-04-11T14:39:54.850Z,11.12
2019-04-11T14:42:46.233Z,14.35
2019-04-11T14:45:36.614Z,16.85
2019-04-11T14:48:27.066Z,15.30
2019-04-11T14:51:03.731Z,14.85
2019-04-11T14:53:53.635Z,17.12
2019-04-11T14:56:30.298Z,15.90
2019-04-11T14:59:23.977Z,21.85
2019-04-11T15:02:12.190Z,19.32
2019-04-11T15:04:48.984Z,20.75
2019-04-11T15:07:21.377Z,22.45
2019-04-11T15:10:10.953Z,20.97
2019-04-11T15:12:43.117Z,20.27
2019-04-11T15:15:25.026Z,21.10
2019-04-11T15:17:58.828Z,23.25
2019-04-11T15:20:54.183Z,21.48
2019-04-11T15:23:18.625Z,23.65
2019-04-11T15:26:08.811Z,23.70
2019-04-11T15:28:48.453Z,24.70
2019-04-11T15:31:39.159Z,27.60
2019-04-11T15:34:12.450Z,27.87
2019-04-11T15:36:52.341Z,25.90
2019-04-11T15:39:44.334Z,31.50
2019-04-11T15:42:15.977Z,28.47
2019-04-11T15:45:04.770Z,26.77
2019-04-11T15:47:38.378Z,27.48
2019-04-11T15:50:30.703Z,27.02
2019-04-11T15:53:06.607Z,23.60
2019-04-11T15:55:55.946Z,23.92
2019-04-11T15:58:29.534Z,26.40
2019-04-11T16:01:05.999Z,23.10
2019-04-11T16:03:37.967Z,26.35
2019-04-11T16:06:27.135Z,28.17
2019-04-11T16:08:59.731Z,27.87
2019-04-11T16:11:33.220Z,28.75
2019-04-11T16:14:06.834Z,24.43
2019-04-11T16:16:46.587Z,28.75
2019-04-11T16:19:26.442Z,28.67
2019-04-11T16:22:02.717Z,24.85
2019-04-11T16:24:35.572Z,27.75
2019-04-11T16:27:17.796Z,26.07
2019-04-11T16:29:54.260Z,27.60
2019-04-11T16:32:27.749Z,32.70
2019-04-11T16:35:08.429Z,32.95
2019-04-11T16:37:41.843Z,31.25
2019-04-11T16:40:18.199Z,29.17
2019-04-11T16:42:53.576Z,35.75
2019-04-11T16:45:42.688Z,31.80
2019-04-11T16:48:14.680Z,30.37
2019-04-11T16:50:46.638Z,32.95
2019-04-11T16:53:21.857Z,30.85
2019-04-11T16:55:55.521Z,33.25
2019-04-11T16:58:27.545Z,35.92
2019-04-11T17:00:59.443Z,29.18
2019-04-11T17:03:31.472Z,58.02
2019-04-11T17:06:07.782Z,53.80
2019-04-11T17:08:51.693Z,80.83
2019-04-11T17:11:26.724Z,65.80
2019-04-11T17:13:57.905Z,56.05
2019-04-11T17:16:30.838Z,60.23
2019-04-11T17:19:05.473Z,58.78
2019-04-11T17:21:43.000Z,68.20
2019-04-11T17:24:10.751Z,63.92
2019-04-11T17:26:42.923Z,66.65
2019-04-11T17:29:14.992Z,64.55
2019-04-11T17:31:47.166Z,68.92
2019-04-11T17:34:20.551Z,53.38
2019-04-11T17:36:52.504Z,48.83
2019-04-11T17:39:24.675Z,51.73
2019-04-11T17:41:56.657Z,55.50
2019-04-11T17:44:28.708Z,53.95
2019-04-11T17:47:00.976Z,58.58
2019-04-11T17:49:33.066Z,111.30
2019-04-11T17:52:07.027Z,117.40
2019-04-11T17:54:43.345Z,97.00
2019-04-11T17:57:15.213Z,95.57
2019-04-11T17:59:50.642Z,98.95
2019-04-11T18:02:22.821Z,95.50
2019-04-11T18:04:54.983Z,92.65
2019-04-11T18:07:26.856Z,90.15
2019-04-11T18:09:58.710Z,94.72
2019-04-11T18:12:30.676Z,152.07
2019-04-11T18:15:03.012Z,125.22
2019-04-11T18:17:36.223Z,108.10
2019-04-11T18:20:10.154Z,109.05
2019-04-11T18:22:45.793Z,112.30
2019-04-11T18:25:15.725Z,101.10
2019-04-11T18:27:47.467Z,103.75
2019-04-11T18:30:23.261Z,104.10
2019-04-11T18:32:54.473Z,91.25
2019-04-11T18:35:26.506Z,81.12
2019-04-11T18:38:01.755Z,89.75
2019-04-11T18:40:33.235Z,85.60
2019-04-11T18:43:05.298Z,85.97
2019-04-11T18:45:37.363Z,92.85
2019-04-11T18:48:09.228Z,81.97
2019-04-11T18:50:42.067Z,75.65
2019-04-11T18:53:21.951Z,71.28
2019-04-11T18:55:53.640Z,74.90
2019-04-11T18:58:25.597Z,76.40
2019-04-11T19:00:57.866Z,84.80
2019-04-11T19:03:35.986Z,80.38
2019-04-11T19:06:03.404Z,72.92
2019-04-11T19:08:36.319Z,71.07
2019-04-11T19:11:08.382Z,72.67
2019-04-11T19:13:40.218Z,74.45
2019-04-11T19:16:13.806Z,73.75
2019-04-11T19:18:47.660Z,72.17
2019-04-11T19:21:21.091Z,71.45
2019-04-11T19:23:53.350Z,77.75
2019-04-11T19:26:25.368Z,72.03
2019-04-11T19:28:57.121Z,75.25
2019-04-11T19:31:29.312Z,69.97
2019-04-11T19:34:04.396Z,75.72
2019-04-11T19:36:35.129Z,73.28
2019-04-11T19:39:13.549Z,60.80
2019-04-11T19:41:42.903Z,73.50
2019-04-11T19:44:16.859Z,81.87
2019-04-11T19:46:50.981Z,75.92
2019-04-11T19:49:24.210Z,73.25
2019-04-11T19:51:58.653Z,75.67
2019-04-11T19:54:32.805Z,71.07
2019-04-11T19:57:07.711Z,74.07
2019-04-11T19:59:39.454Z,63.95
2019-04-11T20:02:11.723Z,56.45
2019-04-11T20:04:43.484Z,52.60
2019-04-11T20:07:15.399Z,53.00
2019-04-11T20:09:47.305Z,61.15
2019-04-11T20:12:20.301Z,60.15
2019-04-11T20:14:52.460Z,54.63
2019-04-11T20:17:24.427Z,57.88
2019-04-11T20:20:01.579Z,60.35
2019-04-11T20:22:30.192Z,57.43
2019-04-11T20:25:02.834Z,56.88
2019-04-11T20:27:35.158Z,58.83
2019-04-11T20:30:07.847Z,54.03
2019-04-11T20:32:40.041Z,62.95
2019-04-11T20:35:11.925Z,59.40
2019-04-11T20:37:44.720Z,69.47
2019-04-11T20:40:18.150Z,75.52
2019-04-11T20:42:54.051Z,72.12
2019-04-11T20:45:28.483Z,82.88
2019-04-11T20:48:00.905Z,77.22
2019-04-11T20:50:32.737Z,88.65
2019-04-11T20:53:12.626Z,92.20
2019-04-11T20:55:39.266Z,90.92
2019-04-11T20:58:11.714Z,105.30
2019-04-11T21:00:50.091Z,100.97
2019-04-11T21:05:48.726Z,101.15
2019-04-11T21:08:20.392Z,105.15
2019-04-11T21:10:52.234Z,112.40
2019-04-11T21:13:24.120Z,110.60
2019-04-11T21:15:56.655Z,105.37
2019-04-11T21:18:28.536Z,101.67
2019-04-11T21:21:00.851Z,102.07
2019-04-11T21:23:36.714Z,100.70
2019-04-11T21:26:09.048Z,101.27
2019-04-11T21:28:40.991Z,94.50
2019-04-11T21:31:13.183Z,100.70
2019-04-11T21:33:45.147Z,101.40
2019-04-11T21:36:18.331Z,103.67
2019-04-11T21:38:50.509Z,110.30
2019-04-11T21:41:23.799Z,94.20
2019-04-11T21:43:55.443Z,93.27
2019-04-11T21:46:27.955Z,107.12
2019-04-11T21:48:59.819Z,111.75
2019-04-11T21:51:31.849Z,110.17
2019-04-11T21:54:03.811Z,121.95
2019-04-11T21:56:35.792Z,104.83
2019-04-11T21:59:07.969Z,117.62
2019-04-11T22:01:43.002Z,117.53
2019-04-11T22:04:14.861Z,121.65
2019-04-11T22:06:47.206Z,123.53
2019-04-11T22:09:19.188Z,115.28
2019-04-11T22:11:50.931Z,118.00
2019-04-11T22:14:23.442Z,122.78
2019-04-11T22:16:56.738Z,118.00
2019-04-11T22:19:29.239Z,121.87
2019-04-11T22:22:02.266Z,125.62
2019-04-11T22:24:34.382Z,118.60
2019-04-11T22:27:06.430Z,117.95
2019-04-11T22:29:39.111Z,124.82
2019-04-11T22:32:11.268Z,114.62
2019-04-11T22:34:44.582Z,116.67
2019-04-11T22:37:16.934Z,107.17
2019-04-11T22:39:48.992Z,109.55
2019-04-11T22:42:21.071Z,104.67
2019-04-11T22:44:52.815Z,108.20
2019-04-11T22:47:24.802Z,117.90
2019-04-11T22:49:56.864Z,115.65
2019-04-11T22:52:29.262Z,113.50
2019-04-11T22:55:01.211Z,115.70
2019-04-11T22:57:33.371Z,113.50
2019-04-11T23:00:08.589Z,105.12
2019-04-11T23:02:47.420Z,94.80
2019-04-11T23:05:19.797Z,90.03
2019-04-11T23:07:51.790Z,87.27
2019-04-11T23:10:23.827Z,78.62
2019-04-11T23:12:55.992Z,76.90
2019-04-11T23:15:27.766Z,71.17
2019-04-11T23:17:59.732Z,70.92
2019-04-11T23:20:31.694Z,68.52
2019-04-11T23:23:03.564Z,69.32
2019-04-11T23:25:35.418Z,63.68
2019-04-11T23:28:07.509Z,64.67
2019-04-11T23:30:39.749Z,65.75
2019-04-11T23:33:11.522Z,68.20
2019-04-11T23:35:43.463Z,66.45
2019-04-11T23:38:15.278Z,71.47
2019-04-11T23:40:48.897Z,70.28
2019-04-11T23:43:20.780Z,73.55
2019-04-11T23:45:53.180Z,76.25
2019-04-11T23:48:24.814Z,76.97
2019-04-11T23:50:58.337Z,76.33
2019-04-11T23:53:29.906Z,77.78
2019-04-11T23:56:01.733Z,69.47
2019-04-11T23:58:33.802Z,82.50
